createdAt,value
2018-11-26T00:02:02.374Z,5.03
2018-11-26T00:04:30.822Z,6.60
2018-11-26T00:06:59.263Z,6.00
2018-11-26T00:09:28.845Z,12.10
2018-11-26T00:11:58.031Z,10.27
2018-11-26T00:14:26.372Z,8.17
2018-11-26T00:16:55.098Z,9.70
2018-11-26T00:19:27.485Z,8.27
2018-11-26T00:21:59.556Z,9.77
2018-11-26T00:24:29.987Z,4.50
2018-11-26T00:26:58.397Z,14.57
2018-11-26T00:29:26.744Z,13.00
2018-11-26T00:31:55.032Z,10.60
2018-11-26T00:34:23.320Z,8.43
2018-11-26T00:36:51.618Z,11.30
2018-11-26T00:39:20.040Z,9.57
2018-11-26T00:41:48.328Z,8.10
2018-11-26T00:44:16.677Z,9.67
2018-11-26T00:46:44.975Z,6.00
2018-11-26T00:49:13.256Z,9.07
2018-11-26T00:51:41.616Z,4.40
2018-11-26T00:54:09.927Z,8.13
2018-11-26T00:56:38.188Z,14.63
2018-11-26T00:59:06.468Z,11.83
2018-11-26T01:01:34.743Z,6.50
2018-11-26T01:04:03.023Z,11.33
2018-11-26T01:06:31.263Z,6.97
2018-11-26T01:08:59.588Z,5.90
2018-11-26T01:11:27.848Z,8.63
2018-11-26T01:13:56.132Z,9.27
2018-11-26T01:16:24.510Z,11.57
2018-11-26T01:18:52.780Z,7.43
2018-11-26T01:21:21.026Z,8.57
2018-11-26T01:23:49.336Z,20.73
2018-11-26T01:26:17.677Z,10.97
2018-11-26T01:28:45.955Z,6.70
2018-11-26T01:31:14.232Z,10.80
2018-11-26T01:33:42.532Z,13.63
2018-11-26T01:36:10.805Z,8.90
2018-11-26T01:38:39.067Z,10.50
2018-11-26T01:41:07.374Z,5.83
2018-11-26T01:43:35.654Z,12.30
2018-11-26T01:46:03.995Z,9.00
2018-11-26T01:48:32.288Z,6.27
2018-11-26T01:51:00.571Z,9.63
2018-11-26T01:53:28.852Z,5.80
2018-11-26T01:55:57.124Z,4.03
2018-11-26T01:58:25.375Z,4.83
2018-11-26T02:00:53.658Z,12.13
2018-11-26T02:03:21.955Z,12.27
2018-11-26T02:05:50.340Z,7.27
2018-11-26T02:08:18.631Z,13.17
2018-11-26T02:10:46.883Z,6.07
2018-11-26T02:13:15.174Z,12.40
2018-11-26T02:15:43.536Z,13.60
2018-11-26T02:18:11.916Z,6.67
2018-11-26T02:20:40.180Z,18.87
2018-11-26T02:23:08.581Z,8.07
2018-11-26T02:25:36.972Z,9.30
2018-11-26T02:28:05.400Z,6.50
2018-11-26T02:30:33.684Z,7.43
2018-11-26T02:33:02.050Z,6.13
2018-11-26T02:35:30.373Z,10.20
2018-11-26T02:37:58.636Z,8.10
2018-11-26T02:40:28.897Z,11.87
2018-11-26T02:42:57.157Z,7.57
2018-11-26T02:45:25.692Z,8.80
2018-11-26T02:47:53.995Z,10.23
2018-11-26T02:50:22.271Z,12.43
2018-11-26T02:52:50.542Z,9.13
2018-11-26T02:55:18.828Z,13.93
2018-11-26T02:57:47.102Z,8.33
2018-11-26T03:00:15.388Z,7.57
2018-11-26T03:02:43.693Z,11.87
2018-11-26T03:05:12.856Z,6.90
2018-11-26T03:07:41.140Z,6.80
2018-11-26T03:10:10.360Z,12.60
2018-11-26T03:12:39.050Z,6.27
2018-11-26T03:15:11.152Z,6.17
2018-11-26T03:17:39.737Z,11.37
2018-11-26T03:20:09.341Z,8.33
2018-11-26T03:22:37.640Z,4.23
2018-11-26T03:25:07.463Z,10.40
2018-11-26T03:27:35.757Z,15.30
2018-11-26T03:30:05.851Z,16.33
2018-11-26T03:32:34.111Z,13.00
2018-11-26T03:35:02.405Z,9.17
2018-11-26T03:37:30.727Z,13.47
2018-11-26T03:39:58.979Z,16.83
2018-11-26T03:42:27.231Z,9.30
2018-11-26T03:44:55.524Z,6.03
2018-11-26T03:47:23.804Z,12.40
2018-11-26T03:49:52.067Z,6.37
2018-11-26T03:52:20.322Z,7.67
2018-11-26T03:54:48.620Z,11.33
2018-11-26T03:57:16.895Z,16.50
2018-11-26T03:59:45.145Z,10.50
2018-11-26T04:02:13.503Z,9.10
2018-11-26T04:04:41.811Z,9.33
2018-11-26T04:07:10.083Z,14.40
2018-11-26T04:09:38.361Z,6.00
2018-11-26T04:12:06.730Z,8.00
2018-11-26T04:14:35.016Z,9.03
2018-11-26T04:17:05.684Z,4.00
2018-11-26T04:19:33.983Z,7.30
2018-11-26T04:22:02.319Z,11.27
2018-11-26T04:24:30.605Z,10.90
2018-11-26T04:26:58.960Z,3.87
2018-11-26T04:29:27.261Z,8.10
2018-11-26T04:31:55.585Z,11.73
2018-11-26T04:34:23.878Z,12.47
2018-11-26T04:36:52.165Z,7.80
2018-11-26T04:39:20.457Z,14.50
2018-11-26T04:41:48.753Z,13.10
2018-11-26T04:44:17.090Z,10.93
2018-11-26T04:46:45.350Z,17.33
2018-11-26T04:49:13.645Z,6.73
2018-11-26T04:51:41.915Z,5.57
2018-11-26T04:54:10.186Z,9.60
2018-11-26T04:56:38.467Z,18.63
2018-11-26T04:59:06.762Z,17.27
2018-11-26T05:01:35.078Z,10.13
2018-11-26T05:04:03.357Z,12.93
2018-11-26T05:06:31.600Z,6.93
2018-11-26T05:08:59.866Z,10.03
2018-11-26T05:11:28.175Z,9.07
2018-11-26T05:13:56.428Z,10.53
2018-11-26T05:16:24.724Z,10.40
2018-11-26T05:18:53.028Z,7.03
2018-11-26T05:21:21.348Z,7.80
2018-11-26T05:23:49.642Z,8.93
2018-11-26T05:26:17.909Z,7.23
2018-11-26T05:28:46.215Z,5.97
2018-11-26T05:31:14.497Z,7.10
2018-11-26T05:33:42.750Z,10.73
2018-11-26T05:36:10.996Z,9.50
2018-11-26T05:38:39.265Z,15.37
2018-11-26T05:41:07.541Z,8.60
2018-11-26T05:43:35.820Z,18.10
2018-11-26T05:46:04.232Z,16.40
2018-11-26T05:48:32.501Z,12.97
2018-11-26T05:51:00.757Z,16.83
2018-11-26T05:53:29.103Z,16.33
2018-11-26T05:55:57.366Z,11.60
2018-11-26T05:58:25.584Z,11.57
2018-11-26T06:00:53.856Z,9.37
2018-11-26T06:03:22.192Z,7.80
2018-11-26T06:05:50.427Z,7.43
2018-11-26T06:08:18.708Z,10.90
2018-11-26T06:10:47.077Z,11.60
2018-11-26T06:13:15.357Z,10.80
2018-11-26T06:15:43.613Z,9.87
2018-11-26T06:18:11.917Z,10.10
2018-11-26T06:20:40.170Z,8.43
2018-11-26T06:23:08.420Z,7.57
2018-11-26T06:25:36.660Z,10.87
2018-11-26T06:28:05.019Z,8.33
2018-11-26T06:30:33.315Z,12.90
2018-11-26T06:33:01.563Z,11.93
2018-11-26T06:35:29.840Z,8.97
2018-11-26T06:37:58.124Z,6.63
2018-11-26T06:40:26.451Z,9.20
2018-11-26T06:42:54.676Z,7.90
2018-11-26T06:45:23.332Z,10.77
2018-11-26T06:47:51.818Z,12.17
2018-11-26T06:50:20.816Z,12.03
2018-11-26T06:52:49.115Z,8.93
2018-11-26T06:55:18.325Z,11.43
2018-11-26T06:57:46.603Z,8.83
2018-11-26T07:00:16.173Z,9.47
2018-11-26T07:02:44.479Z,11.80
2018-11-26T07:05:16.036Z,8.47
2018-11-26T07:07:44.308Z,15.43
2018-11-26T07:10:13.326Z,12.60
2018-11-26T07:12:41.707Z,21.40
2018-11-26T07:15:18.318Z,13.53
2018-11-26T07:17:46.787Z,19.80
2018-11-26T07:20:18.290Z,18.53
2018-11-26T07:22:47.405Z,22.00
2018-11-26T07:25:17.894Z,26.00
2018-11-26T07:27:52.132Z,36.00
2018-11-26T07:30:21.741Z,21.43
2018-11-26T07:32:50.055Z,28.20
2018-11-26T07:35:18.328Z,22.20
2018-11-26T07:37:46.635Z,23.47
2018-11-26T07:40:15.876Z,21.70
2018-11-26T07:43:15.068Z,20.20
2018-11-26T07:45:43.312Z,17.77
2018-11-26T07:48:12.210Z,21.97
2018-11-26T07:50:40.498Z,27.37
2018-11-26T07:53:11.244Z,24.57
2018-11-26T07:55:40.232Z,11.97
2018-11-26T07:58:08.539Z,15.60
2018-11-26T08:00:36.796Z,19.20
2018-11-26T08:03:05.476Z,22.93
2018-11-26T08:05:33.756Z,27.03
2018-11-26T08:08:02.017Z,16.37
2018-11-26T08:10:30.299Z,14.10
2018-11-26T08:12:58.599Z,17.70
2018-11-26T08:15:28.078Z,14.30
2018-11-26T08:17:56.370Z,13.83
2018-11-26T08:20:24.630Z,21.13
2018-11-26T08:22:52.934Z,29.17
2018-11-26T08:25:22.300Z,14.27
2018-11-26T08:27:50.970Z,16.70
2018-11-26T08:30:24.117Z,24.50
2018-11-26T08:32:54.629Z,19.03
2018-11-26T08:35:22.908Z,15.50
2018-11-26T08:37:57.214Z,19.83
2018-11-26T08:40:28.586Z,8.27
2018-11-26T08:43:02.659Z,25.43
2018-11-26T08:45:42.575Z,24.90
2018-11-26T08:48:15.829Z,18.77
2018-11-26T08:50:44.795Z,12.67
2018-11-26T08:53:13.143Z,23.30
2018-11-26T08:55:41.786Z,14.63
2018-11-26T08:58:10.057Z,12.67
2018-11-26T09:00:38.357Z,9.27
2018-11-26T09:03:12.044Z,11.43
2018-11-26T09:05:50.930Z,17.07
2018-11-26T09:08:19.203Z,14.60
2018-11-26T09:10:47.615Z,9.60
2018-11-26T09:13:15.885Z,15.47
2018-11-26T09:15:44.177Z,17.23
2018-11-26T09:18:12.621Z,21.47
2018-11-26T09:20:40.894Z,14.00
2018-11-26T09:23:09.168Z,12.40
2018-11-26T09:25:37.771Z,17.73
2018-11-26T09:28:05.768Z,12.20
2018-11-26T09:30:34.050Z,17.77
2018-11-26T09:33:02.372Z,11.30
2018-11-26T09:35:30.786Z,16.30
2018-11-26T09:37:59.134Z,15.77
2018-11-26T09:40:27.425Z,22.97
2018-11-26T09:42:55.944Z,15.70
2018-11-26T09:45:24.308Z,18.57
2018-11-26T09:47:52.703Z,20.27
2018-11-26T09:50:22.696Z,14.33
2018-11-26T09:52:51.007Z,24.63
2018-11-26T09:55:19.429Z,16.43
2018-11-26T09:57:47.839Z,22.47
2018-11-26T10:00:18.135Z,19.00
2018-11-26T10:03:03.516Z,15.77
2018-11-26T10:08:21.556Z,12.73
2018-11-26T10:10:56.316Z,28.13
2018-11-26T10:13:25.461Z,27.20
2018-11-26T10:16:00.778Z,18.03
2018-11-26T10:18:29.119Z,18.73
2018-11-26T10:20:57.699Z,10.43
2018-11-26T10:23:26.076Z,21.60
2018-11-26T10:25:54.544Z,16.93
2018-11-26T10:28:22.933Z,13.07
2018-11-26T10:30:51.709Z,18.03
2018-11-26T10:33:20.018Z,17.30
2018-11-26T10:35:48.729Z,21.00
2018-11-26T10:38:17.064Z,19.10
2018-11-26T10:40:45.419Z,27.50
2018-11-26T10:43:13.788Z,27.83
2018-11-26T10:45:42.867Z,14.47
2018-11-26T10:48:11.239Z,15.67
2018-11-26T10:50:39.603Z,12.60
2018-11-26T10:53:08.318Z,18.53
2018-11-26T10:55:36.778Z,17.57
2018-11-26T10:58:06.646Z,19.90
2018-11-26T11:00:39.344Z,9.33
2018-11-26T11:03:07.875Z,16.20
2018-11-26T11:05:38.478Z,19.77
2018-11-26T11:08:07.996Z,17.23
2018-11-26T11:10:36.685Z,28.87
2018-11-26T11:13:05.643Z,23.10
2018-11-26T11:15:45.461Z,21.27
2018-11-26T11:18:13.967Z,17.97
2018-11-26T11:20:42.543Z,16.60
2018-11-26T11:23:13.053Z,25.80
2018-11-26T11:25:41.937Z,16.63
2018-11-26T11:28:10.225Z,20.50
2018-11-26T11:30:38.456Z,14.00
2018-11-26T11:35:35.753Z,19.87
2018-11-26T11:38:04.148Z,14.93
2018-11-26T11:40:33.525Z,15.80
2018-11-26T11:43:01.840Z,11.40
2018-11-26T11:45:31.201Z,9.97
2018-11-26T11:47:59.444Z,14.87
2018-11-26T11:50:27.737Z,18.10
2018-11-26T11:52:56.031Z,10.30
2018-11-26T11:55:25.574Z,24.70
2018-11-26T11:57:54.065Z,36.70
2018-11-26T12:00:30.650Z,18.70
2018-11-26T12:02:59.599Z,24.60
2018-11-26T12:05:27.833Z,22.37
2018-11-26T12:07:56.134Z,15.27
2018-11-26T12:10:24.423Z,25.10
2018-11-26T12:12:52.693Z,14.53
2018-11-26T12:15:20.978Z,15.83
2018-11-26T12:17:49.556Z,21.07
2018-11-26T12:20:17.870Z,22.20
2018-11-26T12:22:46.424Z,27.00
2018-11-26T12:25:16.758Z,17.10
2018-11-26T12:27:45.108Z,11.10
2018-11-26T12:30:21.402Z,24.60
2018-11-26T12:32:49.768Z,18.77
2018-11-26T12:35:18.054Z,15.57
2018-11-26T12:37:46.500Z,11.80
2018-11-26T12:40:18.031Z,13.10
2018-11-26T12:42:46.353Z,18.30
2018-11-26T12:45:18.889Z,16.90
2018-11-26T12:47:47.126Z,16.30
2018-11-26T12:50:15.440Z,14.73
2018-11-26T12:52:43.666Z,16.93
2018-11-26T13:00:53.239Z,17.73
2018-11-26T13:03:21.614Z,22.03
2018-11-26T13:05:49.906Z,20.27
2018-11-26T13:08:18.216Z,13.97
2018-11-26T13:10:46.489Z,11.93
2018-11-26T13:13:14.750Z,19.97
2018-11-26T13:15:43.024Z,15.30
2018-11-26T13:18:11.576Z,21.33
2018-11-26T13:20:39.605Z,22.20
2018-11-26T13:23:09.102Z,16.90
2018-11-26T13:25:41.741Z,15.63
2018-11-26T13:28:07.789Z,18.07
2018-11-26T13:30:38.517Z,10.63
2018-11-26T13:33:09.769Z,15.20
2018-11-26T13:35:38.428Z,16.97
2018-11-26T13:38:07.835Z,19.83
2018-11-26T13:40:36.204Z,18.40
2018-11-26T13:43:07.385Z,15.90
2018-11-26T13:45:37.418Z,18.47
2018-11-26T13:48:07.757Z,15.90
2018-11-26T13:50:38.753Z,14.40
2018-11-26T13:53:07.192Z,13.97
2018-11-26T13:55:35.471Z,22.20
2018-11-26T13:58:04.254Z,27.43
2018-11-26T14:00:32.970Z,29.27
2018-11-26T14:03:01.353Z,23.23
2018-11-26T14:05:29.703Z,25.80
2018-11-26T14:07:58.008Z,20.90
2018-11-26T14:10:27.310Z,20.77
2018-11-26T14:12:58.984Z,18.07
2018-11-26T14:15:27.249Z,13.03
2018-11-26T14:17:55.545Z,13.47
2018-11-26T14:20:23.812Z,14.47
2018-11-26T14:22:52.301Z,18.53
2018-11-26T14:25:20.653Z,16.93
2018-11-26T14:27:49.241Z,25.53
2018-11-26T14:30:24.105Z,19.03
2018-11-26T14:32:52.523Z,24.20
2018-11-26T14:35:20.942Z,14.83
2018-11-26T14:37:50.258Z,20.77
2018-11-26T14:40:27.857Z,14.60
2018-11-26T14:42:56.161Z,18.03
2018-11-26T14:45:24.909Z,23.50
2018-11-26T14:47:53.238Z,13.83
2018-11-26T14:50:21.564Z,19.20
2018-11-26T14:52:50.553Z,16.27
2018-11-26T14:55:21.947Z,24.57
2018-11-26T14:57:50.436Z,22.80
2018-11-26T15:00:19.492Z,21.40
2018-11-26T15:02:47.781Z,21.23
2018-11-26T15:05:16.213Z,17.47
2018-11-26T15:07:44.754Z,18.37
2018-11-26T15:10:18.020Z,17.73
2018-11-26T15:12:46.509Z,16.53
2018-11-26T15:15:23.727Z,23.37
2018-11-26T15:17:52.037Z,21.50
2018-11-26T15:20:23.644Z,19.10
2018-11-26T15:22:52.804Z,20.77
2018-11-26T15:25:23.966Z,20.83
2018-11-26T15:27:53.372Z,21.63
2018-11-26T15:30:22.277Z,31.13
2018-11-26T15:32:50.543Z,23.87
2018-11-26T15:35:21.895Z,26.03
2018-11-26T15:37:50.567Z,17.47
2018-11-26T15:40:19.817Z,24.60
2018-11-26T15:42:48.133Z,25.00
2018-11-26T15:45:20.777Z,17.90
2018-11-26T15:47:50.202Z,25.73
2018-11-26T15:50:18.744Z,36.30
2018-11-26T15:52:47.207Z,14.63
2018-11-26T15:55:17.257Z,18.77
2018-11-26T15:57:45.678Z,40.37
2018-11-26T16:00:19.177Z,16.27
2018-11-26T16:02:47.703Z,13.67
2018-11-26T16:05:19.247Z,23.27
2018-11-26T16:07:48.473Z,20.67
2018-11-26T16:10:16.973Z,19.60
2018-11-26T16:12:46.577Z,24.57
2018-11-26T16:15:17.674Z,19.37
2018-11-26T16:17:46.149Z,21.53
2018-11-26T16:20:19.162Z,29.27
2018-11-26T16:22:47.530Z,22.63
2018-11-26T16:25:19.094Z,20.03
2018-11-26T16:27:47.661Z,18.67
2018-11-26T16:30:17.859Z,18.20
2018-11-26T16:32:48.806Z,28.43
2018-11-26T16:35:20.662Z,22.43
2018-11-26T16:37:49.139Z,23.73
2018-11-26T16:40:19.174Z,20.37
2018-11-26T16:42:48.284Z,24.37
2018-11-26T16:45:18.089Z,20.20
2018-11-26T16:47:48.716Z,25.37
2018-11-26T16:50:18.363Z,34.30
2018-11-26T16:52:46.884Z,36.77
2018-11-26T16:55:16.728Z,17.47
2018-11-26T16:57:51.741Z,23.40
2018-11-26T17:00:23.923Z,26.60
2018-11-26T17:02:54.066Z,34.87
2018-11-26T17:05:27.878Z,26.60
2018-11-26T17:07:56.367Z,32.30
2018-11-26T17:10:24.974Z,27.23
2018-11-26T17:12:53.509Z,24.50
2018-11-26T17:15:21.951Z,25.20
2018-11-26T17:17:50.616Z,33.47
2018-11-26T17:20:18.889Z,32.77
2018-11-26T17:22:47.219Z,34.57
2018-11-26T17:25:16.339Z,21.53
2018-11-26T17:27:48.432Z,25.97
2018-11-26T17:30:19.270Z,26.87
2018-11-26T17:32:49.732Z,33.20
2018-11-26T17:35:18.397Z,21.53
2018-11-26T17:37:46.653Z,25.77
2018-11-26T17:40:19.213Z,22.50
2018-11-26T17:42:48.030Z,25.80
2018-11-26T17:45:17.042Z,28.20
2018-11-26T17:47:48.401Z,29.87
2018-11-26T17:50:21.565Z,25.53
2018-11-26T17:52:50.312Z,33.03
2018-11-26T17:55:18.624Z,18.80
2018-11-26T17:57:47.075Z,37.00
2018-11-26T18:00:19.645Z,33.57
2018-11-26T18:02:47.930Z,25.83
2018-11-26T18:05:17.767Z,26.93
2018-11-26T18:07:47.489Z,28.23
2018-11-26T18:10:16.055Z,34.77
2018-11-26T18:12:44.586Z,21.10
2018-11-26T18:15:14.536Z,35.70
2018-11-26T18:17:43.930Z,22.80
2018-11-26T18:20:17.578Z,27.07
2018-11-26T18:22:47.426Z,26.67
2018-11-26T18:25:16.284Z,35.37
2018-11-26T18:27:50.036Z,31.47
2018-11-26T18:30:23.127Z,30.07
2018-11-26T18:32:51.405Z,29.67
2018-11-26T18:35:19.961Z,21.20
2018-11-26T18:37:48.305Z,23.23
2018-11-26T18:40:17.282Z,22.57
2018-11-26T18:42:45.569Z,28.80
2018-11-26T18:45:15.989Z,19.63
2018-11-26T18:47:44.806Z,34.57
2018-11-26T18:50:17.649Z,25.53
2018-11-26T18:52:46.431Z,27.77
2018-11-26T18:55:14.928Z,38.27
2018-11-26T18:57:43.305Z,34.60
2018-11-26T19:00:14.745Z,29.77
2018-11-26T19:02:43.099Z,32.17
2018-11-26T19:05:12.353Z,20.00
2018-11-26T19:07:40.694Z,30.10
2018-11-26T19:10:13.107Z,26.60
2018-11-26T19:12:42.183Z,21.67
2018-11-26T19:15:17.496Z,41.33
2018-11-26T19:17:46.581Z,25.07
2018-11-26T19:20:15.606Z,18.70
2018-11-26T19:22:44.099Z,36.13
2018-11-26T19:25:14.274Z,21.07
2018-11-26T19:27:42.605Z,24.27
2018-11-26T19:30:12.614Z,29.40
2018-11-26T19:32:43.363Z,47.43
2018-11-26T19:35:12.978Z,29.57
2018-11-26T19:37:41.282Z,26.83
2018-11-26T19:40:18.138Z,34.63
2018-11-26T19:42:47.894Z,32.10
2018-11-26T19:45:19.487Z,27.90
2018-11-26T19:47:49.177Z,32.40
2018-11-26T19:50:18.870Z,27.47
2018-11-26T19:52:49.963Z,23.97
2018-11-26T19:55:21.404Z,27.13
2018-11-26T19:57:49.962Z,26.50
2018-11-26T20:00:28.575Z,32.03
2018-11-26T20:05:07.209Z,30.67
2018-11-26T20:07:35.993Z,18.40
2018-11-26T20:10:04.261Z,30.53
2018-11-26T20:12:32.545Z,18.97
2018-11-26T20:15:00.846Z,17.20
2018-11-26T20:17:29.137Z,33.63
2018-11-26T20:19:57.418Z,19.63
2018-11-26T20:22:25.757Z,28.27
2018-11-26T20:24:54.028Z,32.23
2018-11-26T20:27:22.342Z,19.73
2018-11-26T20:29:52.839Z,33.27
2018-11-26T20:32:21.115Z,24.63
2018-11-26T20:34:49.432Z,28.60
2018-11-26T20:37:17.759Z,22.33
2018-11-26T20:39:46.061Z,27.07
2018-11-26T20:42:14.353Z,41.13
2018-11-26T20:44:42.587Z,23.70
2018-11-26T20:47:10.966Z,21.70
2018-11-26T20:49:39.312Z,24.97
2018-11-26T20:52:07.716Z,25.50
2018-11-26T20:54:36.234Z,32.00
2018-11-26T20:57:04.554Z,22.27
2018-11-26T20:59:32.926Z,33.50
2018-11-26T21:02:01.306Z,24.23
2018-11-26T21:04:29.830Z,29.70
2018-11-26T21:06:58.271Z,30.83
2018-11-26T21:09:27.138Z,22.73
2018-11-26T21:12:00.122Z,33.20
2018-11-26T21:14:30.633Z,20.90
2018-11-26T21:16:59.009Z,24.87
2018-11-26T21:19:27.484Z,25.10
2018-11-26T21:21:55.837Z,24.60
2018-11-26T21:24:24.228Z,33.33
2018-11-26T21:26:52.514Z,48.13
2018-11-26T21:29:20.893Z,32.93
2018-11-26T21:31:49.212Z,21.80
2018-11-26T21:34:17.633Z,29.63
2018-11-26T21:36:46.078Z,28.00
2018-11-26T21:39:15.634Z,37.33
2018-11-26T21:41:45.976Z,11.17
2018-11-26T21:44:14.518Z,32.00
2018-11-26T21:46:43.003Z,37.00
2018-11-26T21:49:11.401Z,29.27
2018-11-26T21:51:39.974Z,29.80
2018-11-26T21:54:08.391Z,25.33
2018-11-26T21:56:36.827Z,23.27
2018-11-26T21:59:06.059Z,26.20
2018-11-26T22:01:34.411Z,23.57
2018-11-26T22:04:02.917Z,19.70
2018-11-26T22:06:31.378Z,29.00
2018-11-26T22:08:59.841Z,19.80
2018-11-26T22:11:30.446Z,28.10
2018-11-26T22:13:56.704Z,27.80
2018-11-26T22:16:25.603Z,36.90
2018-11-26T22:18:54.134Z,24.53
2018-11-26T22:21:23.103Z,29.13
2018-11-26T22:23:51.625Z,22.07
2018-11-26T22:26:19.965Z,46.40
2018-11-26T22:28:49.542Z,21.17
2018-11-26T22:31:18.236Z,28.10
2018-11-26T22:33:47.072Z,25.90
2018-11-26T22:36:15.624Z,27.37
2018-11-26T22:38:43.923Z,24.33
2018-11-26T22:41:12.892Z,24.07
2018-11-26T22:43:41.292Z,21.73
2018-11-26T22:46:09.744Z,29.10
2018-11-26T22:48:38.121Z,24.67
2018-11-26T22:51:06.494Z,22.60
2018-11-26T22:53:34.838Z,18.00
2018-11-26T22:56:06.454Z,22.77
2018-11-26T22:58:34.921Z,14.53
2018-11-26T23:01:03.941Z,23.27
2018-11-26T23:03:32.557Z,19.17
2018-11-26T23:06:01.916Z,24.03
2018-11-26T23:08:30.296Z,23.90
2018-11-26T23:10:58.574Z,21.13
2018-11-26T23:13:26.954Z,22.77
2018-11-26T23:15:55.277Z,29.60
2018-11-26T23:18:23.681Z,36.27
2018-11-26T23:20:52.124Z,25.37
2018-11-26T23:23:20.662Z,19.03
2018-11-26T23:25:48.932Z,22.87
2018-11-26T23:28:17.526Z,26.93
2018-11-26T23:30:45.935Z,29.77
2018-11-26T23:33:14.265Z,19.47
2018-11-26T23:35:42.628Z,35.80
2018-11-26T23:38:10.945Z,23.57
2018-11-26T23:40:39.355Z,28.77
2018-11-26T23:43:07.801Z,25.10
2018-11-26T23:45:36.604Z,21.23
2018-11-26T23:48:05.790Z,22.57
2018-11-26T23:50:34.683Z,25.80
2018-11-26T23:53:03.132Z,27.57
2018-11-26T23:55:31.850Z,18.17
2018-11-26T23:58:00.427Z,29.73
